sensor_id;sensor_type;location;lat;lon;timestamp;pressure;altitude;pressure_sealevel;temperature;humidity
55032;BME280;40928;51.076;7.950;2023-11-19T00:00:38;96553.19;;;6.77;100.00
55032;BME280;40928;51.076;7.950;2023-11-19T00:03:04;96549.94;;;6.75;100.00
55032;BME280;40928;51.076;7.950;2023-11-19T00:05:34;96554.44;;;6.75;100.00
55032;BME280;40928;51.076;7.950;2023-11-19T00:08:00;96536.66;;;6.75;100.00
55032;BME280;40928;51.076;7.950;2023-11-19T00:10:27;96537.69;;;6.74;100.00
55032;BME280;40928;51.076;7.950;2023-11-19T00:12:52;96533.31;;;6.80;100.00
55032;BME280;40928;51.076;7.950;2023-11-19T00:15:18;96539.22;;;6.82;100.00
55032;BME280;40928;51.076;7.950;2023-11-19T00:17:45;96540.63;;;6.84;100.00
55032;BME280;40928;51.076;7.950;2023-11-19T00:20:14;96546.16;;;6.83;100.00
55032;BME280;40928;51.076;7.950;2023-11-19T00:22:40;96533.03;;;6.88;100.00
55032;BME280;40928;51.076;7.950;2023-11-19T00:25:07;96517.69;;;7.02;100.00
55032;BME280;40928;51.076;7.950;2023-11-19T00:27:34;96523.56;;;6.92;100.00
55032;BME280;40928;51.076;7.950;2023-11-19T00:30:00;96530.38;;;6.88;100.00
55032;BME280;40928;51.076;7.950;2023-11-19T00:32:27;96536.25;;;6.90;100.00
55032;BME280;40928;51.076;7.950;2023-11-19T00:34:52;96534.63;;;6.89;100.00
55032;BME280;40928;51.076;7.950;2023-11-19T00:37:18;96517.69;;;6.90;100.00
55032;BME280;40928;51.076;7.950;2023-11-19T00:39:44;96506.38;;;6.95;100.00
55032;BME280;40928;51.076;7.950;2023-11-19T00:42:10;96512.47;;;6.95;100.00
55032;BME280;40928;51.076;7.950;2023-11-19T00:44:36;96516.16;;;6.94;100.00
55032;BME280;40928;51.076;7.950;2023-11-19T00:47:03;96496.34;;;6.97;100.00
55032;BME280;40928;51.076;7.950;2023-11-19T00:49:30;96517.56;;;6.97;100.00
55032;BME280;40928;51.076;7.950;2023-11-19T00:51:58;96498.16;;;6.96;100.00
55032;BME280;40928;51.076;7.950;2023-11-19T00:54:24;96503.03;;;6.99;100.00
55032;BME280;40928;51.076;7.950;2023-11-19T00:56:52;96507.66;;;7.04;100.00
55032;BME280;40928;51.076;7.950;2023-11-19T00:59:18;96491.84;;;7.09;100.00
55032;BME280;40928;51.076;7.950;2023-11-19T01:01:43;96496.72;;;7.12;100.00
55032;BME280;40928;51.076;7.950;2023-11-19T01:04:09;96498.78;;;7.10;100.00
55032;BME280;40928;51.076;7.950;2023-11-19T01:06:35;96484.69;;;7.10;100.00
55032;BME280;40928;51.076;7.950;2023-11-19T01:09:02;96467.72;;;7.11;100.00
55032;BME280;40928;51.076;7.950;2023-11-19T01:11:28;96483.19;;;7.14;100.00
55032;BME280;40928;51.076;7.950;2023-11-19T01:13:55;96478.69;;;7.14;100.00
55032;BME280;40928;51.076;7.950;2023-11-19T01:16:21;96474.19;;;7.15;100.00
55032;BME280;40928;51.076;7.950;2023-11-19T01:18:47;96475.00;;;7.15;100.00
55032;BME280;40928;51.076;7.950;2023-11-19T01:21:15;96469.13;;;7.13;100.00
55032;BME280;40928;51.076;7.950;2023-11-19T01:23:42;96480.88;;;7.18;100.00
55032;BME280;40928;51.076;7.950;2023-11-19T01:26:12;96476.72;;;7.22;100.00
55032;BME280;40928;51.076;7.950;2023-11-19T01:28:39;96479.72;;;7.25;100.00
55032;BME280;40928;51.076;7.950;2023-11-19T01:31:08;96462.53;;;7.28;100.00
55032;BME280;40928;51.076;7.950;2023-11-19T01:33:38;96459.88;;;7.28;100.00
55032;BME280;40928;51.076;7.950;2023-11-19T01:36:03;96459.19;;;7.32;100.00
55032;BME280;40928;51.076;7.950;2023-11-19T01:38:29;96454.91;;;7.31;100.00
55032;BME280;40928;51.076;7.950;2023-11-19T01:40:59;96460.81;;;7.34;100.00
55032;BME280;40928;51.076;7.950;2023-11-19T01:43:38;96451.78;;;7.35;100.00
55032;BME280;40928;51.076;7.950;2023-11-19T01:46:05;96458.34;;;7.44;100.00
55032;BME280;40928;51.076;7.950;2023-11-19T01:48:33;96453.88;;;7.44;100.00
55032;BME280;40928;51.076;7.950;2023-11-19T01:51:00;96454.91;;;7.43;100.00
55032;BME280;40928;51.076;7.950;2023-11-19T01:53:27;96451.09;;;7.51;100.00
55032;BME280;40928;51.076;7.950;2023-11-19T01:55:54;96451.88;;;7.52;100.00
55032;BME280;40928;51.076;7.950;2023-11-19T01:58:21;96453.97;;;7.50;100.00
55032;BME280;40928;51.076;7.950;2023-11-19T02:00:47;96443.22;;;7.56;100.00
55032;BME280;40928;51.076;7.950;2023-11-19T02:03:14;96442.16;;;7.57;100.00
55032;BME280;40928;51.076;7.950;2023-11-19T02:05:39;96442.75;;;7.59;100.00
55032;BME280;40928;51.076;7.950;2023-11-19T02:08:05;96436.63;;;7.59;100.00
55032;BME280;40928;51.076;7.950;2023-11-19T02:10:31;96425.16;;;7.82;100.00
55032;BME280;40928;51.076;7.950;2023-11-19T02:12:58;96413.38;;;7.78;100.00
55032;BME280;40928;51.076;7.950;2023-11-19T02:15:23;96428.25;;;7.79;100.00
55032;BME280;40928;51.076;7.950;2023-11-19T02:17:51;96433.84;;;7.77;100.00
55032;BME280;40928;51.076;7.950;2023-11-19T02:20:18;96421.91;;;7.80;100.00
55032;BME280;40928;51.076;7.950;2023-11-19T02:22:46;96424.25;;;8.05;100.00
55032;BME280;40928;51.076;7.950;2023-11-19T02:25:21;96425.75;;;8.01;100.00
55032;BME280;40928;51.076;7.950;2023-11-19T02:27:56;96447.72;;;8.08;100.00
55032;BME280;40928;51.076;7.950;2023-11-19T02:30:23;96437.88;;;8.09;100.00
55032;BME280;40928;51.076;7.950;2023-11-19T02:32:56;96442.16;;;8.10;100.00
55032;BME280;40928;51.076;7.950;2023-11-19T02:35:24;96427.09;;;8.16;100.00
55032;BME280;40928;51.076;7.950;2023-11-19T02:37:50;96457.19;;;8.16;100.00
55032;BME280;40928;51.076;7.950;2023-11-19T02:40:15;96441.44;;;8.15;100.00
55032;BME280;40928;51.076;7.950;2023-11-19T02:42:41;96442.75;;;8.29;100.00
55032;BME280;40928;51.076;7.950;2023-11-19T02:45:07;96443.13;;;8.33;100.00
55032;BME280;40928;51.076;7.950;2023-11-19T02:47:33;96432.88;;;8.42;100.00
55032;BME280;40928;51.076;7.950;2023-11-19T02:49:59;96441.41;;;8.44;100.00
55032;BME280;40928;51.076;7.950;2023-11-19T02:52:25;96433.38;;;8.38;100.00
55032;BME280;40928;51.076;7.950;2023-11-19T02:54:51;96424.41;;;8.45;100.00
55032;BME280;40928;51.076;7.950;2023-11-19T02:57:17;96418.44;;;8.66;100.00
55032;BME280;40928;51.076;7.950;2023-11-19T02:59:45;96404.22;;;8.61;100.00
55032;BME280;40928;51.076;7.950;2023-11-19T03:02:10;96403.97;;;8.62;100.00
55032;BME280;40928;51.076;7.950;2023-11-19T03:04:37;96405.13;;;8.66;100.00
55032;BME280;40928;51.076;7.950;2023-11-19T03:07:06;96399.53;;;8.68;100.00
55032;BME280;40928;51.076;7.950;2023-11-19T03:09:33;96400.03;;;8.65;100.00
55032;BME280;40928;51.076;7.950;2023-11-19T03:12:00;96379.06;;;8.68;100.00
55032;BME280;40928;51.076;7.950;2023-11-19T03:14:26;96375.50;;;8.80;100.00
55032;BME280;40928;51.076;7.950;2023-11-19T03:16:52;96392.28;;;8.80;100.00
55032;BME280;40928;51.076;7.950;2023-11-19T03:19:17;96399.56;;;8.85;100.00
55032;BME280;40928;51.076;7.950;2023-11-19T03:21:43;96400.13;;;8.87;100.00
55032;BME280;40928;51.076;7.950;2023-11-19T03:24:10;96394.81;;;8.87;100.00
55032;BME280;40928;51.076;7.950;2023-11-19T03:26:36;96383.97;;;8.94;100.00
55032;BME280;40928;51.076;7.950;2023-11-19T03:29:02;96385.25;;;8.91;100.00
55032;BME280;40928;51.076;7.950;2023-11-19T03:31:28;96377.66;;;9.00;100.00
55032;BME280;40928;51.076;7.950;2023-11-19T03:33:54;96379.28;;;9.01;100.00
55032;BME280;40928;51.076;7.950;2023-11-19T03:36:20;96371.69;;;9.10;100.00
55032;BME280;40928;51.076;7.950;2023-11-19T03:38:45;96383.47;;;9.14;100.00
55032;BME280;40928;51.076;7.950;2023-11-19T03:41:12;96376.25;;;9.14;100.00
55032;BME280;40928;51.076;7.950;2023-11-19T03:43:39;96380.31;;;9.17;100.00
55032;BME280;40928;51.076;7.950;2023-11-19T03:46:04;96392.31;;;9.20;100.00
55032;BME280;40928;51.076;7.950;2023-11-19T03:48:31;96375.91;;;9.28;100.00
55032;BME280;40928;51.076;7.950;2023-11-19T03:50:56;96383.41;;;9.31;100.00
55032;BME280;40928;51.076;7.950;2023-11-19T03:53:22;96373.56;;;9.32;100.00
55032;BME280;40928;51.076;7.950;2023-11-19T03:55:49;96380.25;;;9.34;100.00
55032;BME280;40928;51.076;7.950;2023-11-19T03:58:15;96383.00;;;9.39;100.00
55032;BME280;40928;51.076;7.950;2023-11-19T04:00:40;96385.41;;;9.41;100.00
55032;BME280;40928;51.076;7.950;2023-11-19T04:03:06;96372.00;;;9.36;100.00
55032;BME280;40928;51.076;7.950;2023-11-19T04:05:31;96372.00;;;9.36;100.00
55032;BME280;40928;51.076;7.950;2023-11-19T04:07:57;96366.69;;;9.36;100.00
55032;BME280;40928;51.076;7.950;2023-11-19T04:10:23;96370.66;;;9.33;100.00
55032;BME280;40928;51.076;7.950;2023-11-19T04:12:49;96377.91;;;9.38;100.00
55032;BME280;40928;51.076;7.950;2023-11-19T04:15:15;96378.47;;;9.40;100.00
55032;BME280;40928;51.076;7.950;2023-11-19T04:17:41;96369.97;;;9.43;100.00
55032;BME280;40928;51.076;7.950;2023-11-19T04:20:06;96381.63;;;9.37;100.00
55032;BME280;40928;51.076;7.950;2023-11-19T04:22:36;96375.38;;;9.48;100.00
55032;BME280;40928;51.076;7.950;2023-11-19T04:25:02;96380.72;;;9.48;100.00
55032;BME280;40928;51.076;7.950;2023-11-19T04:27:27;96379.91;;;9.48;100.00
55032;BME280;40928;51.076;7.950;2023-11-19T04:29:53;96381.69;;;9.42;100.00
55032;BME280;40928;51.076;7.950;2023-11-19T04:32:18;96368.84;;;9.39;100.00
55032;BME280;40928;51.076;7.950;2023-11-19T04:34:44;96373.88;;;9.35;100.00
55032;BME280;40928;51.076;7.950;2023-11-19T04:37:10;96374.19;;;9.39;100.00
55032;BME280;40928;51.076;7.950;2023-11-19T04:39:35;96376.84;;;9.39;100.00
55032;BME280;40928;51.076;7.950;2023-11-19T04:42:02;96384.91;;;9.44;100.00
55032;BME280;40928;51.076;7.950;2023-11-19T04:44:29;96381.69;;;9.42;100.00
55032;BME280;40928;51.076;7.950;2023-11-19T04:46:55;96379.59;;;9.44;100.00
55032;BME280;40928;51.076;7.950;2023-11-19T04:49:21;96376.38;;;9.42;100.00
55032;BME280;40928;51.076;7.950;2023-11-19T04:51:46;96382.19;;;9.39;100.00
55032;BME280;40928;51.076;7.950;2023-11-19T04:54:16;96383.56;;;9.41;100.00
55032;BME280;40928;51.076;7.950;2023-11-19T04:56:45;96378.22;;;9.41;100.00
55032;BME280;40928;51.076;7.950;2023-11-19T04:59:11;96375.13;;;9.50;100.00
55032;BME280;40928;51.076;7.950;2023-11-19T05:01:36;96384.44;;;9.47;100.00
55032;BME280;40928;51.076;7.950;2023-11-19T05:04:02;96380.72;;;9.48;100.00
55032;BME280;40928;51.076;7.950;2023-11-19T05:06:31;96387.59;;;9.44;100.00
55032;BME280;40928;51.076;7.950;2023-11-19T05:08:58;96393.16;;;9.42;100.00
55032;BME280;40928;51.076;7.950;2023-11-19T05:11:26;96396.19;;;9.51;100.00
55032;BME280;40928;51.076;7.950;2023-11-19T05:13:54;96391.31;;;9.43;100.00
55032;BME280;40928;51.076;7.950;2023-11-19T05:16:19;96385.66;;;9.39;100.00
55032;BME280;40928;51.076;7.950;2023-11-19T05:18:46;96386.75;;;9.43;100.00
55032;BME280;40928;51.076;7.950;2023-11-19T05:21:12;96393.97;;;9.43;100.00
55032;BME280;40928;51.076;7.950;2023-11-19T05:23:37;96367.69;;;9.29;100.00
55032;BME280;40928;51.076;7.950;2023-11-19T05:26:05;96394.44;;;9.40;100.00
55032;BME280;40928;51.076;7.950;2023-11-19T05:28:31;96396.88;;;9.41;100.00
55032;BME280;40928;51.076;7.950;2023-11-19T05:30:57;96383.13;;;9.50;100.00
55032;BME280;40928;51.076;7.950;2023-11-19T05:33:23;96386.09;;;9.53;100.00
55032;BME280;40928;51.076;7.950;2023-11-19T05:35:48;96384.91;;;9.44;100.00
55032;BME280;40928;51.076;7.950;2023-11-19T05:38:14;96388.94;;;9.47;100.00
55032;BME280;40928;51.076;7.950;2023-11-19T05:40:41;96390.25;;;9.44;100.00
55032;BME280;40928;51.076;7.950;2023-11-19T05:43:06;96396.44;;;9.50;100.00
55032;BME280;40928;51.076;7.950;2023-11-19T05:45:32;96388.06;;;9.41;100.00
55032;BME280;40928;51.076;7.950;2023-11-19T05:47:58;96391.78;;;9.40;100.00
55032;BME280;40928;51.076;7.950;2023-11-19T05:50:23;96394.44;;;9.40;100.00
55032;BME280;40928;51.076;7.950;2023-11-19T05:52:49;96411.78;;;9.42;100.00
55032;BME280;40928;51.076;7.950;2023-11-19T05:55:15;96406.16;;;9.39;100.00
55032;BME280;40928;51.076;7.950;2023-11-19T05:57:40;96412.06;;;9.41;100.00
55032;BME280;40928;51.076;7.950;2023-11-19T06:00:06;96408.81;;;9.39;100.00
55032;BME280;40928;51.076;7.950;2023-11-19T06:02:37;96392.03;;;9.38;100.00
55032;BME280;40928;51.076;7.950;2023-11-19T06:05:04;96395.19;;;9.35;100.00
55032;BME280;40928;51.076;7.950;2023-11-19T06:07:31;96403.25;;;9.40;100.00
55032;BME280;40928;51.076;7.950;2023-11-19T06:09:57;96394.84;;;9.49;100.00
55032;BME280;40928;51.076;7.950;2023-11-19T06:12:22;96405.09;;;9.57;100.00
55032;BME280;40928;51.076;7.950;2023-11-19T06:14:48;96421.22;;;9.50;100.00
55032;BME280;40928;51.076;7.950;2023-11-19T06:17:14;96406.63;;;9.53;100.00
55032;BME280;40928;51.076;7.950;2023-11-19T06:19:40;96415.91;;;9.50;100.00
55032;BME280;40928;51.076;7.950;2023-11-19T06:22:08;96419.88;;;9.48;100.00
55032;BME280;40928;51.076;7.950;2023-11-19T06:24:34;96431.53;;;9.41;100.00
55032;BME280;40928;51.076;7.950;2023-11-19T06:26:59;96438.69;;;9.41;100.00
55032;BME280;40928;51.076;7.950;2023-11-19T06:29:26;96434.59;;;9.33;100.00
55032;BME280;40928;51.076;7.950;2023-11-19T06:31:52;96432.75;;;9.34;100.00
55032;BME280;40928;51.076;7.950;2023-11-19T06:34:21;96430.56;;;9.31;100.00
55032;BME280;40928;51.076;7.950;2023-11-19T06:36:49;96429.56;;;9.37;100.00
55032;BME280;40928;51.076;7.950;2023-11-19T06:39:16;96436.38;;;9.27;100.00
55032;BME280;40928;51.076;7.950;2023-11-19T06:41:46;96445.13;;;9.23;100.00
55032;BME280;40928;51.076;7.950;2023-11-19T06:44:13;96442.13;;;9.19;100.00
55032;BME280;40928;51.076;7.950;2023-11-19T06:46:39;96433.25;;;9.13;100.00
55032;BME280;40928;51.076;7.950;2023-11-19T06:49:06;96441.31;;;9.19;100.00
55032;BME280;40928;51.076;7.950;2023-11-19T06:51:41;96448.53;;;9.18;100.00
55032;BME280;40928;51.076;7.950;2023-11-19T06:54:07;96445.28;;;9.16;100.00
55032;BME280;40928;51.076;7.950;2023-11-19T06:56:33;96442.84;;;9.14;100.00
55032;BME280;40928;51.076;7.950;2023-11-19T06:58:59;96442.84;;;9.14;100.00
55032;BME280;40928;51.076;7.950;2023-11-19T07:01:26;96448.00;;;9.21;100.00
55032;BME280;40928;51.076;7.950;2023-11-19T07:03:53;96447.78;;;9.23;100.00
55032;BME280;40928;51.076;7.950;2023-11-19T07:06:19;96458.09;;;9.19;100.00
55032;BME280;40928;51.076;7.950;2023-11-19T07:08:45;96454.81;;;9.12;100.00
55032;BME280;40928;51.076;7.950;2023-11-19T07:11:11;96449.75;;;9.10;100.00
55032;BME280;40928;51.076;7.950;2023-11-19T07:13:38;96439.56;;;9.07;100.00
55032;BME280;40928;51.076;7.950;2023-11-19T07:16:03;96444.56;;;9.04;100.00
55032;BME280;40928;51.076;7.950;2023-11-19T07:18:29;96439.72;;;9.01;100.00
55032;BME280;40928;51.076;7.950;2023-11-19T07:20:54;96455.47;;;9.02;100.00
55032;BME280;40928;51.076;7.950;2023-11-19T07:23:20;96440.94;;;9.10;100.00
55032;BME280;40928;51.076;7.950;2023-11-19T07:25:47;96451.00;;;9.08;100.00
55032;BME280;40928;51.076;7.950;2023-11-19T07:28:13;96462.97;;;9.05;100.00
55032;BME280;40928;51.076;7.950;2023-11-19T07:30:38;96446.41;;;9.03;100.00
55032;BME280;40928;51.076;7.950;2023-11-19T07:33:04;96459.56;;;9.10;100.00
55032;BME280;40928;51.076;7.950;2023-11-19T07:35:31;96448.66;;;9.11;100.00
55032;BME280;40928;51.076;7.950;2023-11-19T07:37:57;96460.03;;;9.07;100.00
55032;BME280;40928;51.076;7.950;2023-11-19T07:40:24;96459.72;;;9.03;100.00
55032;BME280;40928;51.076;7.950;2023-11-19T07:42:49;96459.47;;;9.05;100.00
55032;BME280;40928;51.076;7.950;2023-11-19T07:45:16;96463.13;;;9.16;100.00
55032;BME280;40928;51.076;7.950;2023-11-19T07:47:42;96467.16;;;9.01;100.00
55032;BME280;40928;51.076;7.950;2023-11-19T07:50:10;96447.94;;;9.16;100.00
55032;BME280;40928;51.076;7.950;2023-11-19T07:52:37;96452.16;;;9.12;100.00
55032;BME280;40928;51.076;7.950;2023-11-19T07:55:03;96463.28;;;9.09;100.00
55032;BME280;40928;51.076;7.950;2023-11-19T07:57:30;96459.09;;;9.13;100.00
55032;BME280;40928;51.076;7.950;2023-11-19T07:59:57;96477.47;;;9.14;100.00
55032;BME280;40928;51.076;7.950;2023-11-19T08:02:22;96468.13;;;9.12;100.00
55032;BME280;40928;51.076;7.950;2023-11-19T08:04:49;96463.28;;;9.09;100.00
55032;BME280;40928;51.076;7.950;2023-11-19T08:07:18;96466.25;;;9.12;100.00
55032;BME280;40928;51.076;7.950;2023-11-19T08:09:44;96460.44;;;9.16;100.00
55032;BME280;40928;51.076;7.950;2023-11-19T08:12:10;96463.38;;;9.14;100.00
55032;BME280;40928;51.076;7.950;2023-11-19T08:14:36;96471.38;;;9.14;100.00
55032;BME280;40928;51.076;7.950;2023-11-19T08:17:03;96497.75;;;9.16;100.00
55032;BME280;40928;51.076;7.950;2023-11-19T08:19:30;96485.25;;;9.16;100.00
55032;BME280;40928;51.076;7.950;2023-11-19T08:21:56;96484.44;;;9.16;100.00
55032;BME280;40928;51.076;7.950;2023-11-19T08:24:23;96495.97;;;9.21;100.00
55032;BME280;40928;51.076;7.950;2023-11-19T08:26:50;96490.56;;;9.16;100.00
55032;BME280;40928;51.076;7.950;2023-11-19T08:29:17;96501.44;;;9.14;100.00
55032;BME280;40928;51.076;7.950;2023-11-19T08:31:42;96499.13;;;9.18;100.00
55032;BME280;40928;51.076;7.950;2023-11-19T08:34:08;96497.16;;;9.13;100.00
55032;BME280;40928;51.076;7.950;2023-11-19T08:36:37;96498.00;;;9.14;100.00
55032;BME280;40928;51.076;7.950;2023-11-19T08:39:03;96503.00;;;9.10;100.00
55032;BME280;40928;51.076;7.950;2023-11-19T08:41:28;96508.66;;;9.14;100.00
55032;BME280;40928;51.076;7.950;2023-11-19T08:43:54;96507.03;;;9.13;100.00
55032;BME280;40928;51.076;7.950;2023-11-19T08:46:20;96507.34;;;9.17;100.00
55032;BME280;40928;51.076;7.950;2023-11-19T08:48:47;96501.28;;;9.21;100.00
55032;BME280;40928;51.076;7.950;2023-11-19T08:51:14;96510.31;;;9.20;100.00
55032;BME280;40928;51.076;7.950;2023-11-19T08:53:40;96520.44;;;9.18;100.00
55032;BME280;40928;51.076;7.950;2023-11-19T08:56:06;96513.00;;;9.20;100.00
55032;BME280;40928;51.076;7.950;2023-11-19T08:58:31;96524.78;;;9.24;100.00
55032;BME280;40928;51.076;7.950;2023-11-19T09:00:57;96526.50;;;9.31;100.00
55032;BME280;40928;51.076;7.950;2023-11-19T09:03:23;96526.16;;;9.27;100.00
55032;BME280;40928;51.076;7.950;2023-11-19T09:05:51;96529.16;;;9.31;100.00
55032;BME280;40928;51.076;7.950;2023-11-19T09:08:16;96514.69;;;9.26;100.00
55032;BME280;40928;51.076;7.950;2023-11-19T09:10:42;96534.50;;;9.31;100.00
55032;BME280;40928;51.076;7.950;2023-11-19T09:13:07;96520.59;;;9.28;100.00
55032;BME280;40928;51.076;7.950;2023-11-19T09:15:33;96515.84;;;9.31;100.00
55032;BME280;40928;51.076;7.950;2023-11-19T09:17:58;96540.59;;;9.31;100.00
55032;BME280;40928;51.076;7.950;2023-11-19T09:20:24;96541.28;;;9.38;100.00
55032;BME280;40928;51.076;7.950;2023-11-19T09:22:50;96534.72;;;9.46;100.00
55032;BME280;40928;51.076;7.950;2023-11-19T09:25:16;96535.69;;;9.40;100.00
55032;BME280;40928;51.076;7.950;2023-11-19T09:27:43;96546.34;;;9.40;100.00
55032;BME280;40928;51.076;7.950;2023-11-19T09:30:09;96530.66;;;9.43;100.00
55032;BME280;40928;51.076;7.950;2023-11-19T09:32:34;96548.53;;;9.43;100.00
55032;BME280;40928;51.076;7.950;2023-11-19T09:35:00;96557.09;;;9.45;100.00
55032;BME280;40928;51.076;7.950;2023-11-19T09:37:26;96554.59;;;9.38;100.00
55032;BME280;40928;51.076;7.950;2023-11-19T09:39:52;96552.25;;;9.42;100.00
55032;BME280;40928;51.076;7.950;2023-11-19T09:42:19;96542.94;;;9.44;100.00
55032;BME280;40928;51.076;7.950;2023-11-19T09:44:44;96551.19;;;9.43;100.00
55032;BME280;40928;51.076;7.950;2023-11-19T09:47:11;96545.38;;;9.46;100.00
55032;BME280;40928;51.076;7.950;2023-11-19T09:49:37;96548.53;;;9.43;100.00
55032;BME280;40928;51.076;7.950;2023-11-19T09:52:02;96553.53;;;9.39;100.00
55032;BME280;40928;51.076;7.950;2023-11-19T09:54:28;96549.56;;;9.42;100.00
55032;BME280;40928;51.076;7.950;2023-11-19T09:56:57;96542.72;;;9.46;100.00
55032;BME280;40928;51.076;7.950;2023-11-19T09:59:28;96535.69;;;9.40;100.00
55032;BME280;40928;51.076;7.950;2023-11-19T10:01:55;96535.81;;;9.50;100.00
55032;BME280;40928;51.076;7.950;2023-11-19T10:04:23;96524.28;;;9.44;100.00
55032;BME280;40928;51.076;7.950;2023-11-19T10:06:52;96523.50;;;9.44;100.00
55032;BME280;40928;51.076;7.950;2023-11-19T10:09:18;96526.72;;;9.46;100.00
55032;BME280;40928;51.076;7.950;2023-11-19T10:11:44;96521.78;;;9.38;100.00
55032;BME280;40928;51.076;7.950;2023-11-19T10:14:09;96533.97;;;9.51;100.00
55032;BME280;40928;51.076;7.950;2023-11-19T10:16:35;96527.84;;;9.50;100.00
55032;BME280;40928;51.076;7.950;2023-11-19T10:19:01;96529.69;;;9.50;100.00
55032;BME280;40928;51.076;7.950;2023-11-19T10:21:27;96531.06;;;9.52;100.00
55032;BME280;40928;51.076;7.950;2023-11-19T10:23:55;96529.69;;;9.50;100.00
55032;BME280;40928;51.076;7.950;2023-11-19T10:26:26;96524.84;;;9.47;100.00
55032;BME280;40928;51.076;7.950;2023-11-19T10:28:52;96518.78;;;9.51;100.00
55032;BME280;40928;51.076;7.950;2023-11-19T10:31:20;96519.91;;;9.55;100.00
55032;BME280;40928;51.076;7.950;2023-11-19T10:33:50;96520.75;;;9.56;100.00
55032;BME280;40928;51.076;7.950;2023-11-19T10:36:16;96516.22;;;9.56;100.00
55032;BME280;40928;51.076;7.950;2023-11-19T10:39:03;96518.13;;;9.61;100.00
55032;BME280;40928;51.076;7.950;2023-11-19T10:41:29;96512.97;;;9.54;100.00
55032;BME280;40928;51.076;7.950;2023-11-19T10:43:56;96514.84;;;9.54;100.00
55032;BME280;40928;51.076;7.950;2023-11-19T10:46:21;96510.78;;;9.51;100.00
55032;BME280;40928;51.076;7.950;2023-11-19T10:48:49;96515.03;;;9.47;100.00
55032;BME280;40928;51.076;7.950;2023-11-19T10:51:19;96510.78;;;9.51;100.00
55032;BME280;40928;51.076;7.950;2023-11-19T10:53:49;96517.25;;;9.55;100.00
55032;BME280;40928;51.076;7.950;2023-11-19T10:56:16;96512.75;;;9.56;100.00
55032;BME280;40928;51.076;7.950;2023-11-19T10:58:45;96518.09;;;9.56;100.00
55032;BME280;40928;51.076;7.950;2023-11-19T11:01:18;96518.38;;;9.59;100.00
55032;BME280;40928;51.076;7.950;2023-11-19T11:03:46;96502.53;;;9.70;100.00
55032;BME280;40928;51.076;7.950;2023-11-19T11:06:13;96513.28;;;9.75;100.00
55032;BME280;40928;51.076;7.950;2023-11-19T11:08:39;96517.00;;;9.74;100.00
55032;BME280;40928;51.076;7.950;2023-11-19T11:11:06;96503.09;;;9.72;100.00
55032;BME280;40928;51.076;7.950;2023-11-19T11:13:33;96499.88;;;9.70;100.00
55032;BME280;40928;51.076;7.950;2023-11-19T11:15:59;96513.00;;;9.77;100.00
55032;BME280;40928;51.076;7.950;2023-11-19T11:18:25;96509.56;;;9.76;100.00
55032;BME280;40928;51.076;7.950;2023-11-19T11:21:00;96506.81;;;9.71;100.00
55032;BME280;40928;51.076;7.950;2023-11-19T11:28:59;96494.91;;;9.79;100.00
55032;BME280;40928;51.076;7.950;2023-11-19T11:34:57;96498.88;;;9.76;100.00
55032;BME280;40928;51.076;7.950;2023-11-19T11:37:39;96504.22;;;9.76;100.00
55032;BME280;40928;51.076;7.950;2023-11-19T11:40:14;96498.94;;;9.81;100.00
55032;BME280;40928;51.076;7.950;2023-11-19T11:42:41;96505.97;;;9.87;100.00
55032;BME280;40928;51.076;7.950;2023-11-19T11:45:10;96497.69;;;9.89;100.00
55032;BME280;40928;51.076;7.950;2023-11-19T11:50:09;96503.00;;;9.84;100.00
55032;BME280;40928;51.076;7.950;2023-11-19T11:55:26;96499.00;;;9.86;100.00
55032;BME280;40928;51.076;7.950;2023-11-19T11:57:51;96496.59;;;9.85;100.00
55032;BME280;40928;51.076;7.950;2023-11-19T12:02:49;96470.53;;;9.92;100.00
55032;BME280;40928;51.076;7.950;2023-11-19T12:05:15;96476.13;;;9.90;100.00
55032;BME280;40928;51.076;7.950;2023-11-19T12:07:40;96468.63;;;9.87;100.00
55032;BME280;40928;51.076;7.950;2023-11-19T12:10:07;96458.44;;;9.84;100.00
55032;BME280;40928;51.076;7.950;2023-11-19T12:12:34;96465.59;;;9.79;100.00
55032;BME280;40928;51.076;7.950;2023-11-19T12:15:03;96478.13;;;9.78;100.00
55032;BME280;40928;51.076;7.950;2023-11-19T12:20:05;96465.47;;;9.68;100.00
55032;BME280;40928;51.076;7.950;2023-11-19T12:22:37;96461.41;;;9.66;100.00
55032;BME280;40928;51.076;7.950;2023-11-19T12:25:05;96459.31;;;9.68;100.00
55032;BME280;40928;51.076;7.950;2023-11-19T12:27:32;96470.22;;;9.66;100.00
55032;BME280;40928;51.076;7.950;2023-11-19T12:30:00;96466.41;;;10.29;100.00
55032;BME280;40928;51.076;7.950;2023-11-19T12:32:43;96481.94;;;10.54;100.00
55032;BME280;40928;51.076;7.950;2023-11-19T12:35:13;96482.25;;;10.58;100.00
55032;BME280;40928;51.076;7.950;2023-11-19T12:37:49;96465.81;;;10.71;100.00
55032;BME280;40928;51.076;7.950;2023-11-19T12:40:22;96452.16;;;10.68;100.00
55032;BME280;40928;51.076;7.950;2023-11-19T12:42:49;96456.22;;;10.75;100.00
55032;BME280;40928;51.076;7.950;2023-11-19T12:45:15;96448.38;;;10.96;100.00
55032;BME280;40928;51.076;7.950;2023-11-19T12:47:42;96453.28;;;11.04;100.00
55032;BME280;40928;51.076;7.950;2023-11-19T12:50:09;96458.09;;;11.07;100.00
55032;BME280;40928;51.076;7.950;2023-11-19T12:52:35;96449.72;;;10.99;100.00
55032;BME280;40928;51.076;7.950;2023-11-19T12:55:05;96446.53;;;10.96;100.00
55032;BME280;40928;51.076;7.950;2023-11-19T12:57:49;96442.00;;;10.97;100.00
55032;BME280;40928;51.076;7.950;2023-11-19T13:00:24;96431.00;;;10.93;100.00
55032;BME280;40928;51.076;7.950;2023-11-19T13:02:52;96438.63;;;10.74;100.00
55032;BME280;40928;51.076;7.950;2023-11-19T13:05:33;96440.13;;;10.65;100.00
55032;BME280;40928;51.076;7.950;2023-11-19T13:08:04;96434.50;;;10.61;100.00
55032;BME280;40928;51.076;7.950;2023-11-19T13:10:31;96427.28;;;10.62;100.00
55032;BME280;40928;51.076;7.950;2023-11-19T13:15:27;96422.28;;;10.43;100.00
55032;BME280;40928;51.076;7.950;2023-11-19T13:17:52;96437.88;;;10.29;100.00
55032;BME280;40928;51.076;7.950;2023-11-19T13:20:18;96430.94;;;10.28;100.00